Time;durP1;ratioP1;P1;durP2;ratioP2;P2;SDS_P1;SDS_P2;PMS_P1;PMS_P2;Temp;Humidity;BMP_temperature;BMP_pressure;BME280_temperature;BME280_humidity;BME280_pressure;Samples;Min_cycle;Max_cycle;Signal;HPM_P1;HPM_P2
2023/08/27 00:00:17;;;;;;;9.80;6.37;;;18.50;99.90;;;;;;4161086;28;20284;-79
2023/08/27 00:02:18;;;;;;;11.27;7.30;;;18.50;99.90;;;;;;4163250;28;20823;-78
2023/08/27 00:04:20;;;;;;;13.07;8.67;;;18.50;99.90;;;;;;4169123;28;20214;-79
2023/08/27 00:06:22;;;;;;;13.07;7.87;;;18.40;99.90;;;;;;4162739;28;20218;-78
2023/08/27 00:08:24;;;;;;;14.97;8.33;;;18.40;99.90;;;;;;4164677;28;20215;-78
2023/08/27 00:10:26;;;;;;;17.30;9.53;;;18.30;99.90;;;;;;4163759;28;20258;-78
2023/08/27 00:12:28;;;;;;;16.70;9.93;;;18.30;99.90;;;;;;4162705;28;20246;-78
2023/08/27 00:14:30;;;;;;;16.13;10.27;;;18.30;99.90;;;;;;4167157;28;20209;-79
2023/08/27 00:16:34;;;;;;;14.37;9.40;;;18.30;99.90;;;;;;4169269;28;20219;-78
2023/08/27 00:18:36;;;;;;;13.40;8.47;;;18.20;99.90;;;;;;4161571;28;20215;-78
2023/08/27 00:20:37;;;;;;;12.90;8.20;;;18.20;99.90;;;;;;4164194;28;20295;-78
2023/08/27 00:22:40;;;;;;;10.50;7.47;;;18.20;99.90;;;;;;4167406;28;20267;-79
2023/08/27 00:24:42;;;;;;;11.17;6.60;;;18.20;99.90;;;;;;4164778;28;20296;-78
2023/08/27 00:26:43;;;;;;;10.87;6.83;;;18.10;99.90;;;;;;4164551;28;20208;-78
2023/08/27 00:28:46;;;;;;;11.27;6.93;;;18.10;99.90;;;;;;4164782;28;20218;-79
2023/08/27 00:30:48;;;;;;;13.27;6.93;;;18.10;99.90;;;;;;4168422;28;20218;-78
2023/08/27 00:32:51;;;;;;;9.37;6.30;;;18.10;99.90;;;;;;4159237;28;20222;-79
2023/08/27 00:34:52;;;;;;;9.33;6.07;;;18.00;99.90;;;;;;4161332;28;20206;-78
2023/08/27 00:36:54;;;;;;;11.17;6.43;;;18.00;99.90;;;;;;4163383;28;20597;-79
2023/08/27 00:38:55;;;;;;;10.27;6.10;;;18.00;99.90;;;;;;4160264;28;20217;-79
2023/08/27 00:40:57;;;;;;;9.53;6.57;;;17.90;99.90;;;;;;4147025;28;20227;-78
2023/08/27 00:42:59;;;;;;;12.63;6.17;;;18.00;99.90;;;;;;4163355;28;20229;-79
2023/08/27 00:45:03;;;;;;;10.03;6.10;;;17.90;99.90;;;;;;4164259;28;20207;-79
2023/08/27 00:47:05;;;;;;;9.50;5.53;;;17.90;99.90;;;;;;4163920;28;20218;-78
2023/08/27 00:49:08;;;;;;;8.37;5.40;;;17.90;99.90;;;;;;4162051;28;20210;-79
2023/08/27 00:51:10;;;;;;;8.30;5.67;;;17.90;99.90;;;;;;4163040;28;20805;-79
2023/08/27 00:53:13;;;;;;;9.43;5.70;;;17.90;99.90;;;;;;4159440;28;20222;-79
2023/08/27 00:55:15;;;;;;;8.93;5.93;;;17.90;99.90;;;;;;4141451;28;20648;-79
2023/08/27 00:57:18;;;;;;;12.07;6.00;;;17.90;99.90;;;;;;4161186;28;20222;-78
2023/08/27 00:59:21;;;;;;;9.77;6.00;;;17.90;99.90;;;;;;4155698;28;20869;-79
2023/08/27 01:01:24;;;;;;;8.60;5.30;;;17.80;99.90;;;;;;4157265;28;20215;-78
2023/08/27 01:03:26;;;;;;;7.63;5.63;;;17.80;99.90;;;;;;4154445;28;20298;-78
2023/08/27 01:05:29;;;;;;;9.67;5.73;;;17.80;99.90;;;;;;4155698;28;20275;-79
2023/08/27 01:07:40;;;;;;;9.00;5.70;;;17.80;99.90;;;;;;4159273;28;20704;-78
2023/08/27 01:09:46;;;;;;;7.70;5.40;;;17.70;99.90;;;;;;4158509;28;20234;-78
2023/08/27 01:11:57;;;;;;;6.20;5.00;;;17.70;99.90;;;;;;4158801;28;20716;-78
2023/08/27 01:14:04;;;;;;;7.60;4.60;;;17.70;99.90;;;;;;4154304;28;20214;-78
2023/08/27 01:16:08;;;;;;;8.70;4.83;;;17.70;99.90;;;;;;4161379;28;20203;-79
2023/08/27 01:18:11;;;;;;;5.87;4.53;;;17.60;99.90;;;;;;4161618;28;20206;-78
2023/08/27 01:20:14;;;;;;;5.97;4.40;;;17.60;99.90;;;;;;4157858;28;20231;-78
2023/08/27 01:22:17;;;;;;;7.80;4.07;;;17.60;99.90;;;;;;4155450;28;20238;-78
2023/08/27 01:24:19;;;;;;;5.97;4.07;;;17.50;99.90;;;;;;4154950;28;20295;-79
2023/08/27 01:26:25;;;;;;;6.07;3.70;;;17.50;99.90;;;;;;4156098;28;20209;-78
2023/08/27 01:28:33;;;;;;;6.80;4.43;;;17.50;99.90;;;;;;4159529;28;20214;-78
2023/08/27 01:30:40;;;;;;;6.20;4.17;;;17.50;99.90;;;;;;4158321;28;20222;-78
2023/08/27 01:32:48;;;;;;;6.80;4.10;;;17.50;99.90;;;;;;4159017;28;20237;-78
2023/08/27 01:34:52;;;;;;;5.30;3.87;;;17.40;99.90;;;;;;4156035;28;20773;-79
2023/08/27 01:36:55;;;;;;;7.97;4.13;;;17.40;99.90;;;;;;4160495;28;20294;-79
2023/08/27 01:38:59;;;;;;;9.27;4.90;;;17.40;99.90;;;;;;4143509;28;20219;-78
2023/08/27 01:41:01;;;;;;;6.70;4.13;;;17.40;99.90;;;;;;4156555;28;20699;-78
2023/08/27 01:43:03;;;;;;;7.40;4.50;;;17.40;99.90;;;;;;4161201;28;20230;-78
2023/08/27 01:45:06;;;;;;;7.07;4.63;;;17.40;99.90;;;;;;4162748;28;20217;-78
2023/08/27 01:47:08;;;;;;;6.80;4.70;;;17.30;99.90;;;;;;4162770;28;20214;-80
2023/08/27 01:49:09;;;;;;;5.50;3.90;;;17.40;99.90;;;;;;4161399;28;20207;-78
2023/08/27 01:51:11;;;;;;;7.13;4.00;;;17.30;99.90;;;;;;4163682;28;20925;-78
2023/08/27 01:53:12;;;;;;;7.23;4.27;;;17.30;99.90;;;;;;4167923;28;20257;-78
2023/08/27 01:55:15;;;;;;;6.37;4.17;;;17.30;99.90;;;;;;4162661;28;20211;-78
2023/08/27 01:57:17;;;;;;;5.27;3.80;;;17.20;99.90;;;;;;4159011;28;20214;-78
2023/08/27 01:59:19;;;;;;;5.50;3.60;;;17.30;99.90;;;;;;4163323;28;20671;-78
2023/08/27 02:01:21;;;;;;;6.47;3.87;;;17.20;99.90;;;;;;4168754;28;20232;-78
2023/08/27 02:03:23;;;;;;;5.00;3.60;;;17.20;99.90;;;;;;4164118;28;20211;-78
2023/08/27 02:05:25;;;;;;;8.70;3.67;;;17.20;99.90;;;;;;4167179;28;20239;-78
2023/08/27 02:07:27;;;;;;;5.27;4.07;;;17.20;99.90;;;;;;4167243;28;20214;-78
2023/08/27 02:09:29;;;;;;;6.37;4.40;;;17.20;99.90;;;;;;4167836;28;20257;-78
2023/08/27 02:11:32;;;;;;;8.50;4.10;;;17.20;99.90;;;;;;4164534;28;20236;-77
2023/08/27 02:13:34;;;;;;;5.57;3.90;;;17.20;99.90;;;;;;4167710;28;20249;-77
2023/08/27 02:15:36;;;;;;;5.43;3.83;;;17.20;99.90;;;;;;4169799;28;20188;-77
2023/08/27 02:17:38;;;;;;;6.50;4.40;;;17.20;99.90;;;;;;4169813;28;20206;-77
2023/08/27 02:19:40;;;;;;;6.03;3.80;;;17.10;99.90;;;;;;4165591;28;20230;-78
2023/08/27 02:21:42;;;;;;;6.33;4.13;;;17.20;99.90;;;;;;4156321;28;20215;-78
2023/08/27 02:23:44;;;;;;;5.50;3.83;;;17.10;99.90;;;;;;4166504;28;20210;-77
2023/08/27 02:25:46;;;;;;;4.63;3.50;;;17.10;99.90;;;;;;4168129;28;20552;-78
2023/08/27 02:27:49;;;;;;;6.37;4.00;;;17.10;99.90;;;;;;4162558;28;20213;-78
2023/08/27 02:29:51;;;;;;;6.60;3.80;;;17.10;99.90;;;;;;4163333;28;20838;-78
2023/08/27 02:31:53;;;;;;;6.90;3.90;;;17.10;99.90;;;;;;4159323;28;20647;-77
2023/08/27 02:33:54;;;;;;;5.33;3.53;;;17.10;99.90;;;;;;4160088;28;20250;-78
2023/08/27 02:35:56;;;;;;;6.00;3.80;;;17.10;99.90;;;;;;4155045;28;20229;-78
2023/08/27 02:37:58;;;;;;;6.90;4.20;;;17.10;99.90;;;;;;4162077;28;20209;-78
2023/08/27 02:40:00;;;;;;;5.93;3.87;;;17.10;99.90;;;;;;4156415;28;20664;-77
2023/08/27 02:42:02;;;;;;;6.27;4.20;;;17.10;99.90;;;;;;4158695;28;20339;-78
2023/08/27 02:44:06;;;;;;;7.60;3.60;;;17.10;99.90;;;;;;4161935;28;20209;-78
2023/08/27 02:46:08;;;;;;;7.73;4.13;;;17.10;99.90;;;;;;4157836;28;20735;-78
2023/08/27 02:48:10;;;;;;;7.23;3.80;;;17.00;99.90;;;;;;4160113;28;20229;-77
2023/08/27 02:50:12;;;;;;;7.27;4.17;;;17.00;99.90;;;;;;4153914;28;20256;-78
2023/08/27 02:52:14;;;;;;;5.63;4.03;;;17.10;99.90;;;;;;4155272;28;20733;-78
2023/08/27 02:54:16;;;;;;;6.33;4.23;;;17.00;99.90;;;;;;4161127;28;20243;-78
2023/08/27 02:56:18;;;;;;;5.73;3.80;;;17.10;99.90;;;;;;4160885;28;20211;-78
2023/08/27 02:58:19;;;;;;;6.50;4.10;;;17.00;99.90;;;;;;4158649;28;20217;-78
2023/08/27 03:00:23;;;;;;;6.40;4.03;;;17.00;99.90;;;;;;4154196;28;20238;-78
2023/08/27 03:02:26;;;;;;;4.47;3.63;;;17.00;99.90;;;;;;4152225;28;20238;-78
2023/08/27 03:04:27;;;;;;;5.53;3.90;;;17.00;99.90;;;;;;4155826;28;20215;-78
2023/08/27 03:06:29;;;;;;;4.80;3.37;;;17.00;99.90;;;;;;4157119;28;20650;-78
2023/08/27 03:08:30;;;;;;;5.40;4.13;;;16.90;99.90;;;;;;4157677;28;20298;-77
2023/08/27 03:10:32;;;;;;;4.93;3.73;;;16.90;99.90;;;;;;4155509;28;20278;-78
2023/08/27 03:12:34;;;;;;;9.43;3.67;;;16.90;99.90;;;;;;4157781;28;20205;-79
2023/08/27 03:14:36;;;;;;;5.90;3.90;;;16.90;99.90;;;;;;4156567;28;20221;-78
2023/08/27 03:16:40;;;;;;;5.90;3.97;;;16.90;99.90;;;;;;4157213;28;20206;-77
2023/08/27 03:18:42;;;;;;;5.43;4.03;;;16.90;99.90;;;;;;4158008;28;20209;-78
2023/08/27 03:20:43;;;;;;;5.67;3.47;;;16.90;99.90;;;;;;4158857;28;20225;-78
2023/08/27 03:22:45;;;;;;;6.30;4.20;;;16.90;99.90;;;;;;4157913;28;20265;-78
2023/08/27 03:24:47;;;;;;;5.57;4.20;;;16.90;99.90;;;;;;4152548;28;20226;-78
2023/08/27 03:26:50;;;;;;;4.57;3.50;;;16.90;99.90;;;;;;4156338;28;20219;-79
2023/08/27 03:28:53;;;;;;;5.13;3.90;;;16.90;99.90;;;;;;4159890;28;20206;-78
2023/08/27 03:30:54;;;;;;;6.47;4.00;;;16.90;99.90;;;;;;4158301;28;20309;-78
2023/08/27 03:32:57;;;;;;;5.37;3.70;;;16.90;99.90;;;;;;4159661;28;20197;-78
2023/08/27 03:34:58;;;;;;;5.90;4.30;;;16.90;99.90;;;;;;4159280;28;20208;-78
2023/08/27 03:37:01;;;;;;;5.60;4.03;;;16.80;99.90;;;;;;4157575;28;20213;-78
2023/08/27 03:39:04;;;;;;;7.07;4.37;;;16.90;99.90;;;;;;4155666;28;20237;-78
2023/08/27 03:41:05;;;;;;;7.70;4.67;;;16.80;99.90;;;;;;4157760;28;20234;-78
2023/08/27 03:43:07;;;;;;;7.17;4.97;;;16.90;99.90;;;;;;4158755;28;20276;-78
2023/08/27 03:45:10;;;;;;;7.63;4.83;;;16.80;99.90;;;;;;4154143;28;20210;-78
2023/08/27 03:47:12;;;;;;;7.23;5.10;;;16.80;99.90;;;;;;4157272;28;20327;-78
2023/08/27 03:49:15;;;;;;;9.63;5.30;;;16.80;99.90;;;;;;4159149;28;20703;-78
2023/08/27 03:51:17;;;;;;;11.53;5.93;;;16.80;99.90;;;;;;4156037;28;20213;-78
2023/08/27 03:53:19;;;;;;;12.33;7.17;;;16.80;99.90;;;;;;4156514;28;20225;-78
2023/08/27 03:55:21;;;;;;;15.33;10.27;;;16.80;99.90;;;;;;4157996;28;20711;-78
2023/08/27 03:57:23;;;;;;;20.67;10.53;;;16.80;99.90;;;;;;4156402;28;20286;-79
2023/08/27 03:59:24;;;;;;;16.00;10.30;;;16.80;99.90;;;;;;4157937;28;20217;-78
2023/08/27 04:01:26;;;;;;;15.53;9.63;;;16.80;99.90;;;;;;4161339;28;20214;-79
2023/08/27 04:03:29;;;;;;;18.67;8.90;;;16.80;99.90;;;;;;4155143;28;20200;-78
2023/08/27 04:05:33;;;;;;;12.30;8.30;;;16.80;99.90;;;;;;4156130;28;20680;-79
2023/08/27 04:07:35;;;;;;;14.90;8.77;;;16.80;99.90;;;;;;4160534;28;20840;-79
2023/08/27 04:09:37;;;;;;;13.97;7.83;;;16.80;99.90;;;;;;4162489;28;20222;-78
2023/08/27 04:11:38;;;;;;;10.33;6.90;;;16.60;99.90;;;;;;4161788;28;20209;-78
2023/08/27 04:13:40;;;;;;;10.90;6.70;;;16.80;99.90;;;;;;4162397;28;20226;-79
2023/08/27 04:15:42;;;;;;;9.10;6.53;;;16.70;99.90;;;;;;4157610;28;20214;-78
2023/08/27 04:17:44;;;;;;;6.90;5.07;;;16.70;99.90;;;;;;4158320;28;20914;-78
2023/08/27 04:19:46;;;;;;;7.57;5.10;;;16.70;99.90;;;;;;4161565;28;20287;-77
2023/08/27 04:21:50;;;;;;;8.83;4.87;;;16.70;99.90;;;;;;4162421;28;20210;-78
2023/08/27 04:23:51;;;;;;;7.20;4.70;;;16.70;99.90;;;;;;4166201;28;20638;-78
2023/08/27 04:25:53;;;;;;;6.47;4.50;;;16.70;99.90;;;;;;4148527;28;20217;-78
2023/08/27 04:27:55;;;;;;;7.23;4.50;;;16.70;99.90;;;;;;4168502;28;20207;-78
2023/08/27 04:29:57;;;;;;;6.67;4.33;;;16.70;99.90;;;;;;4169106;28;20234;-78
2023/08/27 04:31:59;;;;;;;7.30;4.40;;;16.70;99.90;;;;;;4158821;28;20281;-78
2023/08/27 04:34:00;;;;;;;6.63;4.57;;;16.70;99.90;;;;;;4156610;28;20229;-78
2023/08/27 04:36:02;;;;;;;6.83;4.47;;;16.70;99.90;;;;;;4157330;28;20201;-78
2023/08/27 04:38:07;;;;;;;6.93;4.77;;;16.70;99.90;;;;;;4156941;28;20206;-78
2023/08/27 04:40:09;;;;;;;9.90;5.13;;;16.70;99.90;;;;;;4162338;28;20229;-78
2023/08/27 04:42:10;;;;;;;9.23;5.00;;;16.70;99.90;;;;;;4156413;28;20262;-77
2023/08/27 04:44:12;;;;;;;6.00;4.63;;;16.70;99.90;;;;;;4159735;28;20667;-78
2023/08/27 04:46:14;;;;;;;7.77;4.77;;;16.80;99.90;;;;;;4160005;28;20212;-78
2023/08/27 04:48:16;;;;;;;7.53;4.77;;;16.80;99.90;;;;;;4160487;28;20205;-79
2023/08/27 04:50:18;;;;;;;6.37;4.60;;;16.80;99.90;;;;;;4156850;28;20226;-78
2023/08/27 04:52:20;;;;;;;7.17;4.20;;;16.80;99.90;;;;;;4159044;28;20340;-78
2023/08/27 04:54:23;;;;;;;7.27;4.10;;;16.80;99.90;;;;;;4159739;28;20315;-78
2023/08/27 04:56:25;;;;;;;5.67;3.90;;;16.80;99.90;;;;;;4158947;28;20205;-78
2023/08/27 04:58:27;;;;;;;5.17;3.77;;;16.80;99.90;;;;;;4157169;28;20259;-79
2023/08/27 05:00:29;;;;;;;5.40;3.97;;;16.70;99.90;;;;;;4156646;28;20226;-79
2023/08/27 05:02:31;;;;;;;5.70;3.87;;;16.80;99.90;;;;;;4155979;28;20209;-78
2023/08/27 05:04:33;;;;;;;4.97;3.43;;;16.80;99.90;;;;;;4160129;28;20205;-78
2023/08/27 05:06:34;;;;;;;4.83;3.60;;;16.80;99.90;;;;;;4155146;28;20350;-79
2023/08/27 05:08:36;;;;;;;6.17;4.10;;;16.80;99.90;;;;;;4156415;28;20206;-78
2023/08/27 05:10:40;;;;;;;5.23;3.97;;;16.80;99.90;;;;;;4159396;28;20233;-78
2023/08/27 05:12:42;;;;;;;5.30;3.47;;;16.70;99.90;;;;;;4160293;28;20570;-78
2023/08/27 05:14:44;;;;;;;9.37;4.03;;;16.70;99.90;;;;;;4156836;28;20217;-79
2023/08/27 05:16:45;;;;;;;6.67;3.93;;;16.70;99.90;;;;;;4156277;28;20256;-78
2023/08/27 05:18:47;;;;;;;7.00;3.47;;;16.60;99.90;;;;;;4151231;28;20213;-78
2023/08/27 05:20:49;;;;;;;4.37;3.40;;;16.60;99.90;;;;;;4158378;28;20233;-78
2023/08/27 05:22:51;;;;;;;4.27;3.33;;;16.60;99.90;;;;;;4158552;28;20209;-79
2023/08/27 05:24:53;;;;;;;7.97;3.97;;;16.60;99.90;;;;;;4158127;28;20201;-78
2023/08/27 05:26:56;;;;;;;5.63;3.70;;;16.60;99.90;;;;;;4158284;28;20230;-78
2023/08/27 05:28:58;;;;;;;10.00;4.03;;;16.60;99.90;;;;;;4157247;28;20630;-78
2023/08/27 05:31:00;;;;;;;8.43;4.33;;;16.60;99.90;;;;;;4155109;28;20231;-77
2023/08/27 05:33:02;;;;;;;5.27;4.10;;;16.60;99.90;;;;;;4158758;28;20206;-78
2023/08/27 05:35:05;;;;;;;5.60;4.07;;;16.40;99.90;;;;;;4161498;28;20218;-78
2023/08/27 05:37:06;;;;;;;6.00;3.87;;;16.50;99.90;;;;;;4157338;28;20210;-79
2023/08/27 05:39:08;;;;;;;7.17;3.87;;;16.50;99.90;;;;;;4156048;28;20263;-78
2023/08/27 05:41:10;;;;;;;7.07;4.03;;;16.50;99.90;;;;;;4162322;28;20241;-79
2023/08/27 05:43:14;;;;;;;5.43;3.80;;;16.50;99.90;;;;;;4163633;28;20216;-77
2023/08/27 05:45:16;;;;;;;6.70;4.60;;;16.50;99.90;;;;;;4140617;28;20221;-76
2023/08/27 05:47:18;;;;;;;8.57;4.77;;;16.50;99.90;;;;;;4157230;28;20291;-77
2023/08/27 05:49:19;;;;;;;6.20;4.47;;;16.60;99.90;;;;;;4153587;28;20612;-77
2023/08/27 05:51:22;;;;;;;6.43;4.27;;;16.60;99.90;;;;;;4156984;28;20218;-78
2023/08/27 05:53:23;;;;;;;9.57;5.17;;;16.70;99.90;;;;;;4159288;28;20288;-77
2023/08/27 05:55:25;;;;;;;7.00;4.63;;;16.60;99.90;;;;;;4159240;28;20307;-78
2023/08/27 05:57:27;;;;;;;7.10;4.80;;;16.70;99.90;;;;;;4160047;28;20207;-78
2023/08/27 05:59:31;;;;;;;6.07;4.67;;;16.70;99.90;;;;;;4156613;28;20229;-78
2023/08/27 06:01:33;;;;;;;6.60;4.20;;;16.70;99.90;;;;;;4153293;28;20201;-77
2023/08/27 06:03:34;;;;;;;6.80;3.97;;;16.80;99.90;;;;;;4160339;28;20217;-78
2023/08/27 06:05:35;;;;;;;8.93;5.10;;;16.80;99.90;;;;;;4156942;28;20715;-78
2023/08/27 06:07:37;;;;;;;9.07;4.70;;;16.90;99.90;;;;;;4158463;28;20217;-77
2023/08/27 06:09:39;;;;;;;7.37;4.70;;;16.90;99.90;;;;;;4155303;28;20241;-78
2023/08/27 06:11:41;;;;;;;4.80;4.00;;;16.90;99.90;;;;;;4157167;28;20733;-77
2023/08/27 06:13:43;;;;;;;5.93;4.10;;;17.00;99.90;;;;;;4159158;28;20206;-78
2023/08/27 06:15:46;;;;;;;7.87;4.10;;;17.00;99.90;;;;;;4158896;28;20210;-77
2023/08/27 06:17:48;;;;;;;6.30;4.20;;;17.00;99.90;;;;;;4157773;28;20639;-77
2023/08/27 06:19:50;;;;;;;6.67;3.70;;;17.00;99.90;;;;;;4154629;28;20227;-77
2023/08/27 06:21:51;;;;;;;9.23;4.20;;;17.00;99.90;;;;;;4157136;28;20268;-77
2023/08/27 06:23:53;;;;;;;5.13;3.53;;;17.10;99.90;;;;;;4155320;28;20206;-78
2023/08/27 06:26:01;;;;;;;4.23;3.10;;;17.10;99.90;;;;;;4158934;28;20760;-77
2023/08/27 06:28:05;;;;;;;5.10;3.53;;;17.10;99.90;;;;;;4158371;28;20201;-75
2023/08/27 06:30:08;;;;;;;6.67;3.60;;;17.10;99.90;;;;;;4159717;28;20728;-77
2023/08/27 06:32:16;;;;;;;5.17;3.60;;;17.20;99.90;;;;;;4159498;28;20218;-78
2023/08/27 06:34:19;;;;;;;5.60;3.63;;;17.20;99.90;;;;;;4158237;28;20247;-78
2023/08/27 06:36:21;;;;;;;5.80;3.63;;;17.30;99.90;;;;;;4158497;28;20240;-78
2023/08/27 06:38:22;;;;;;;4.47;3.70;;;17.30;99.90;;;;;;4160237;28;20211;-78
2023/08/27 06:40:24;;;;;;;4.53;2.73;;;17.40;99.90;;;;;;4159273;28;20236;-78
2023/08/27 06:42:25;;;;;;;5.00;3.20;;;17.40;99.90;;;;;;4159990;28;20296;-78
2023/08/27 06:44:26;;;;;;;4.57;3.30;;;17.40;99.90;;;;;;4156223;28;20252;-78
2023/08/27 06:46:28;;;;;;;5.63;3.50;;;17.40;99.90;;;;;;4154145;28;20215;-78
2023/08/27 06:48:33;;;;;;;5.50;3.23;;;17.40;99.90;;;;;;4158425;28;20269;-77
2023/08/27 06:50:35;;;;;;;5.27;3.10;;;17.50;99.90;;;;;;4157310;28;20251;-77
2023/08/27 06:52:37;;;;;;;7.30;3.30;;;17.50;99.90;;;;;;4157966;28;20203;-78
2023/08/27 06:54:38;;;;;;;5.03;3.60;;;17.60;99.90;;;;;;4155346;28;20222;-77
2023/08/27 06:56:40;;;;;;;4.10;2.93;;;17.60;99.90;;;;;;4158218;28;20275;-77
2023/08/27 06:58:42;;;;;;;4.83;3.10;;;17.70;99.90;;;;;;4159865;28;20208;-78
2023/08/27 07:00:44;;;;;;;3.97;3.00;;;17.80;99.90;;;;;;4155154;28;20237;-78
2023/08/27 07:02:46;;;;;;;4.73;3.33;;;17.80;99.90;;;;;;4156567;28;20215;-77
2023/08/27 07:04:49;;;;;;;6.47;3.33;;;17.90;99.90;;;;;;4157800;28;20207;-77
2023/08/27 07:06:51;;;;;;;3.67;2.67;;;17.90;99.90;;;;;;4154474;28;20679;-78
2023/08/27 07:08:53;;;;;;;4.87;3.10;;;17.90;99.90;;;;;;4157204;28;20265;-78
2023/08/27 07:10:56;;;;;;;3.83;2.63;;;18.00;99.90;;;;;;4153322;28;20227;-78
2023/08/27 07:12:58;;;;;;;4.73;2.97;;;18.00;99.90;;;;;;4158256;28;20304;-78
2023/08/27 07:15:00;;;;;;;3.60;2.70;;;18.00;99.90;;;;;;4155045;28;20235;-78
2023/08/27 07:17:02;;;;;;;4.20;2.80;;;18.10;99.90;;;;;;4159334;28;20234;-78
2023/08/27 07:19:04;;;;;;;4.40;3.20;;;18.20;99.90;;;;;;4157023;28;20213;-78
2023/08/27 07:21:07;;;;;;;3.93;2.80;;;18.20;99.90;;;;;;4157788;28;20293;-78
2023/08/27 07:23:09;;;;;;;4.63;2.80;;;18.30;99.90;;;;;;4155904;28;20268;-78
2023/08/27 07:25:11;;;;;;;3.77;3.13;;;18.30;99.90;;;;;;4161997;28;20218;-78
2023/08/27 07:27:13;;;;;;;4.47;3.03;;;18.40;99.90;;;;;;4158061;28;20215;-78
2023/08/27 07:29:14;;;;;;;4.27;2.93;;;18.40;99.90;;;;;;4154394;28;20206;-77
2023/08/27 07:31:16;;;;;;;3.33;2.50;;;18.50;99.90;;;;;;4157691;28;20866;-78
2023/08/27 07:33:21;;;;;;;4.60;2.80;;;18.50;99.90;;;;;;4159619;28;20206;-78
2023/08/27 07:35:23;;;;;;;5.40;2.80;;;18.50;99.90;;;;;;4157387;28;20234;-78
2023/08/27 07:37:27;;;;;;;5.10;2.70;;;18.60;99.90;;;;;;4152408;28;20207;-77
2023/08/27 07:39:29;;;;;;;3.87;2.90;;;18.60;99.90;;;;;;4156190;28;20203;-78
2023/08/27 07:41:31;;;;;;;3.87;2.60;;;18.60;99.90;;;;;;4160319;28;20257;-77
2023/08/27 07:43:33;;;;;;;4.40;3.10;;;18.60;99.90;;;;;;4164065;28;20202;-78
2023/08/27 07:45:35;;;;;;;4.13;2.80;;;18.70;99.90;;;;;;4153584;28;20195;-78
2023/08/27 07:47:36;;;;;;;3.43;2.60;;;18.70;99.90;;;;;;4156867;28;20278;-78
2023/08/27 07:49:38;;;;;;;5.07;3.10;;;18.70;99.90;;;;;;4155872;28;20219;-78
2023/08/27 07:51:40;;;;;;;3.93;2.80;;;18.80;99.90;;;;;;4149714;28;20298;-76
2023/08/27 07:53:43;;;;;;;4.13;2.67;;;18.80;99.90;;;;;;4163000;28;20237;-77
2023/08/27 07:55:45;;;;;;;5.07;2.57;;;18.80;99.90;;;;;;4167717;28;20226;-78
2023/08/27 07:57:47;;;;;;;3.77;2.80;;;18.90;99.90;;;;;;4168110;28;21395;-77
2023/08/27 07:59:51;;;;;;;5.10;2.73;;;18.90;99.90;;;;;;4165547;28;20222;-78
2023/08/27 08:01:53;;;;;;;5.67;3.00;;;19.00;99.90;;;;;;4166157;28;21126;-79
2023/08/27 08:03:55;;;;;;;4.20;2.90;;;19.00;99.90;;;;;;4163475;28;20218;-77
2023/08/27 08:05:56;;;;;;;4.97;2.80;;;19.00;99.90;;;;;;4160616;28;20636;-78
2023/08/27 08:07:58;;;;;;;5.77;2.70;;;19.10;99.90;;;;;;4160354;28;20221;-77
2023/08/27 08:10:02;;;;;;;4.20;2.63;;;19.10;99.90;;;;;;4166359;28;20254;-77
2023/08/27 08:12:05;;;;;;;3.97;2.50;;;19.10;99.90;;;;;;4161367;28;20855;-77
2023/08/27 08:14:07;;;;;;;4.10;3.17;;;19.20;99.90;;;;;;4160578;28;20262;-78
2023/08/27 08:16:09;;;;;;;4.20;2.80;;;19.30;99.90;;;;;;4161789;28;20704;-78
2023/08/27 08:18:10;;;;;;;4.07;2.70;;;19.40;99.90;;;;;;4157784;28;20282;-78
2023/08/27 08:20:12;;;;;;;6.07;3.07;;;19.40;99.90;;;;;;4156821;28;20235;-77
2023/08/27 08:22:14;;;;;;;4.43;2.97;;;19.50;99.90;;;;;;4163244;28;20203;-77
2023/08/27 08:24:15;;;;;;;5.07;3.70;;;19.60;99.90;;;;;;4163463;28;20277;-78
2023/08/27 08:26:19;;;;;;;3.57;2.70;;;19.60;99.90;;;;;;4161429;28;20195;-79
2023/08/27 08:28:22;;;;;;;5.60;3.50;;;19.60;99.90;;;;;;4167492;28;20661;-76
2023/08/27 08:30:24;;;;;;;4.27;2.90;;;19.60;99.90;;;;;;4160385;28;20235;-77
2023/08/27 08:32:26;;;;;;;5.97;3.40;;;19.70;99.90;;;;;;4164939;28;20211;-80
2023/08/27 08:34:28;;;;;;;5.93;3.40;;;19.70;99.90;;;;;;4165833;28;20641;-79
2023/08/27 08:36:30;;;;;;;5.10;3.00;;;19.80;99.90;;;;;;4174500;28;20195;-79
2023/08/27 08:38:33;;;;;;;7.17;3.60;;;19.80;99.90;;;;;;4174482;28;20234;-79
2023/08/27 08:40:40;;;;;;;4.80;2.83;;;19.80;99.90;;;;;;4175164;28;20211;-79
2023/08/27 08:42:52;;;;;;;5.50;2.90;;;19.90;99.90;;;;;;4174586;28;20203;-80
2023/08/27 08:45:00;;;;;;;8.87;3.47;;;19.90;99.90;;;;;;4159650;28;20207;-80
2023/08/27 08:47:03;;;;;;;6.13;3.10;;;19.90;99.90;;;;;;4171625;28;20567;-76
2023/08/27 08:49:08;;;;;;;4.10;3.00;;;19.90;99.90;;;;;;4167140;28;20222;-78
2023/08/27 08:51:12;;;;;;;5.73;2.93;;;19.90;99.90;;;;;;4172786;28;20206;-77
2023/08/27 08:53:15;;;;;;;4.57;3.13;;;20.00;99.90;;;;;;4171600;28;20273;-78
2023/08/27 08:55:20;;;;;;;5.30;3.20;;;20.00;99.90;;;;;;4170533;28;20252;-77
2023/08/27 08:57:25;;;;;;;5.47;2.93;;;20.00;99.90;;;;;;4167801;28;20222;-76
2023/08/27 08:59:30;;;;;;;3.83;2.90;;;20.10;99.90;;;;;;4161063;28;20213;-77
2023/08/27 09:01:31;;;;;;;6.97;3.67;;;20.10;99.90;;;;;;4162836;28;20211;-76
2023/08/27 09:03:34;;;;;;;4.77;3.23;;;20.10;99.90;;;;;;4161469;28;20220;-77
2023/08/27 09:05:38;;;;;;;5.60;3.40;;;20.10;99.90;;;;;;4161255;28;20230;-79
2023/08/27 09:07:41;;;;;;;4.87;3.13;;;20.20;99.90;;;;;;4160206;28;20215;-77
2023/08/27 09:09:44;;;;;;;5.50;3.57;;;20.20;99.90;;;;;;4159927;28;20232;-77
2023/08/27 09:11:47;;;;;;;6.37;3.50;;;20.30;99.90;;;;;;4163991;28;20649;-79
2023/08/27 09:13:49;;;;;;;6.43;3.70;;;20.30;99.90;;;;;;4163391;28;20736;-77
2023/08/27 09:15:52;;;;;;;5.23;3.00;;;20.30;99.90;;;;;;4159375;28;20228;-77
2023/08/27 09:17:54;;;;;;;4.47;3.10;;;20.40;99.90;;;;;;4163781;28;20917;-80
2023/08/27 09:19:56;;;;;;;4.57;2.83;;;20.50;99.90;;;;;;4164602;28;20288;-80
2023/08/27 09:21:58;;;;;;;4.77;2.50;;;20.60;99.90;;;;;;4162934;28;20256;-79
2023/08/27 09:23:59;;;;;;;5.07;3.10;;;20.70;99.90;;;;;;4163820;28;20729;-76
2023/08/27 09:26:02;;;;;;;4.93;2.63;;;20.80;99.90;;;;;;4158843;28;20210;-77
2023/08/27 09:28:05;;;;;;;4.77;3.10;;;20.90;99.90;;;;;;4154150;28;20214;-77
2023/08/27 09:30:09;;;;;;;6.33;3.37;;;20.90;99.90;;;;;;4158526;28;20731;-77
2023/08/27 09:32:21;;;;;;;5.30;3.07;;;21.00;99.90;;;;;;4157503;28;20222;-77
2023/08/27 09:34:23;;;;;;;5.67;3.40;;;21.10;99.90;;;;;;4158326;28;20211;-77
2023/08/27 09:36:26;;;;;;;4.40;2.97;;;21.20;99.90;;;;;;4155190;28;20783;-76
2023/08/27 09:38:29;;;;;;;6.90;3.10;;;21.20;99.90;;;;;;4157710;28;20217;-78
2023/08/27 09:40:31;;;;;;;5.20;3.57;;;21.20;99.90;;;;;;4155122;28;20289;-78
2023/08/27 09:42:33;;;;;;;4.53;2.90;;;21.10;99.90;;;;;;4156687;28;20267;-77
2023/08/27 09:44:34;;;;;;;6.40;3.47;;;21.10;99.90;;;;;;4162010;28;20231;-77
2023/08/27 09:46:36;;;;;;;5.53;3.07;;;21.10;99.90;;;;;;4160983;28;20202;-77
2023/08/27 09:48:40;;;;;;;5.27;3.30;;;21.10;99.90;;;;;;4157904;28;20207;-77
2023/08/27 09:50:42;;;;;;;4.53;3.13;;;21.00;99.90;;;;;;4158426;28;20297;-78
2023/08/27 09:52:44;;;;;;;6.40;3.20;;;21.00;99.90;;;;;;4160501;28;20582;-80
2023/08/27 09:54:46;;;;;;;5.27;3.20;;;21.10;99.90;;;;;;4158960;28;20215;-78
2023/08/27 09:56:49;;;;;;;5.70;3.60;;;21.20;99.90;;;;;;4156310;28;20226;-78
2023/08/27 09:58:51;;;;;;;6.30;3.30;;;21.20;99.90;;;;;;4152404;28;20272;-77
2023/08/27 10:00:58;;;;;;;5.03;3.00;;;21.20;99.90;;;;;;4155312;28;20885;-78
2023/08/27 10:03:01;;;;;;;3.90;3.20;;;21.10;99.90;;;;;;4159295;28;20202;-78
2023/08/27 10:05:09;;;;;;;5.83;2.83;;;21.10;99.90;;;;;;4155976;28;20217;-78
2023/08/27 10:07:13;;;;;;;4.73;2.80;;;21.20;99.90;;;;;;4156986;28;20238;-76
2023/08/27 10:09:16;;;;;;;4.13;3.00;;;21.20;99.90;;;;;;4156002;28;20203;-76
2023/08/27 10:11:18;;;;;;;4.50;3.00;;;21.30;99.90;;;;;;4154151;28;20339;-76
2023/08/27 10:13:21;;;;;;;5.50;3.23;;;21.30;99.90;;;;;;4155537;28;20211;-76
2023/08/27 10:15:23;;;;;;;5.07;3.07;;;21.40;99.90;;;;;;4157003;28;20946;-77
2023/08/27 10:17:26;;;;;;;6.57;3.30;;;21.50;99.90;;;;;;4158431;28;20208;-77
2023/08/27 10:19:29;;;;;;;5.03;3.10;;;21.50;99.90;;;;;;4157270;28;20210;-77
2023/08/27 10:21:32;;;;;;;7.50;3.43;;;21.50;99.90;;;;;;4154636;28;20221;-77
2023/08/27 10:23:35;;;;;;;7.00;3.10;;;21.60;99.90;;;;;;4158117;28;20244;-77
2023/08/27 10:25:38;;;;;;;5.07;3.30;;;21.70;99.90;;;;;;4155902;28;20206;-77
2023/08/27 10:27:42;;;;;;;4.63;3.10;;;21.70;99.90;;;;;;4157847;28;20683;-77
2023/08/27 10:29:46;;;;;;;5.70;3.30;;;21.80;99.90;;;;;;4157284;28;20219;-79
2023/08/27 10:31:48;;;;;;;6.63;3.17;;;21.90;99.90;;;;;;4158470;28;20613;-79
2023/08/27 10:33:50;;;;;;;6.30;3.27;;;22.00;99.90;;;;;;4160346;28;20215;-77
2023/08/27 10:35:54;;;;;;;5.77;3.30;;;22.10;99.90;;;;;;4153910;28;20224;-75